Main page
Satellite images 10-day forecastsClimateMarine weather Cyclones Lightning AirportsFAQ Newsletter About
Weather : Europe Africa North America South America Asia Australia-Oceania Others
Languages Contact

Pontianak, Indonesia

Supadio Airport

latitude: 00-09S, longitude: 109-24E, elevation: 3 m


METAR: WIOO 310030Z 00000KT 6000 -RA FEW010CB BKN011 24/24 Q1012 RETS NOSIG
TAF: missing

Time: 07:58 (00:58 UTC)

Current weather observation

The report was made 28 minutes ago, at 00:30 UTC
Calm wind
Temperature 24°C
Humidity 100%
Pressure 1012 hPa
Visibility: 6000 m
Few clouds at a height of 1000 ft, Cumulonimbus.
Broken clouds at a height of 1100 ft
light rain

Change units
The information on this site is subject to a disclaimer
Weather : Europe Africa North America South America Asia Australia-Oceania Others
Satellite images 10-day forecastsClimateMarine weather Cyclones Lightning AirportsFAQ Languages Contact Newsletter About